Time;durP1;ratioP1;P1;durP2;ratioP2;P2;SDS_P1;SDS_P2;PMS_P1;PMS_P2;Temp;Humidity;BMP_temperature;BMP_pressure;BME280_temperature;BME280_humidity;BME280_pressure;Samples;Min_cycle;Max_cycle;Signal;HPM_P1;HPM_P2
2022/05/15 00:02:14;;;;;;;39.45;12.27;;;12.00;99.90;;;;;;5038443;28;20409;-64
2022/05/15 00:04:39;;;;;;;35.65;12.25;;;12.00;99.90;;;;;;5038378;28;20045;-64
2022/05/15 00:07:06;;;;;;;32.45;13.02;;;12.00;99.90;;;;;;5034678;28;20042;-65
2022/05/15 00:09:32;;;;;;;40.08;11.38;;;12.00;99.90;;;;;;5034547;28;20057;-65
2022/05/15 00:11:57;;;;;;;28.67;10.70;;;12.00;99.90;;;;;;5034512;28;20045;-65
2022/05/15 00:14:23;;;;;;;32.45;12.07;;;12.00;99.90;;;;;;5034371;28;20421;-65
2022/05/15 00:16:49;;;;;;;36.72;11.52;;;11.90;99.90;;;;;;5048532;28;20045;-65
2022/05/15 00:19:14;;;;;;;27.80;10.15;;;11.90;99.90;;;;;;5053436;28;20063;-65
2022/05/15 00:21:40;;;;;;;30.98;11.25;;;11.90;99.90;;;;;;5054343;28;20049;-65
2022/05/15 00:24:06;;;;;;;27.55;10.63;;;11.90;99.90;;;;;;5054528;28;20041;-65
2022/05/15 00:26:33;;;;;;;27.25;10.65;;;11.80;99.90;;;;;;5054498;28;20047;-65
2022/05/15 00:28:59;;;;;;;24.98;9.38;;;11.80;99.90;;;;;;5053689;28;20381;-65
2022/05/15 00:31:25;;;;;;;31.92;11.65;;;11.70;99.90;;;;;;5054412;28;20131;-65
2022/05/15 00:33:51;;;;;;;29.08;10.68;;;11.70;99.90;;;;;;5054285;28;20056;-64
2022/05/15 00:36:17;;;;;;;29.80;10.15;;;11.70;99.90;;;;;;5055857;28;20037;-64
2022/05/15 00:38:43;;;;;;;31.83;9.88;;;11.70;99.90;;;;;;5058172;28;20045;-65
2022/05/15 00:41:10;;;;;;;29.33;9.85;;;11.60;99.90;;;;;;5057889;28;20098;-64
2022/05/15 00:43:44;;;;;;;34.22;11.00;;;11.60;99.90;;;;;;5056874;28;20055;-64
2022/05/15 00:46:29;;;;;;;39.50;10.23;;;11.60;99.90;;;;;;5057176;28;20512;-64
2022/05/15 00:48:56;;;;;;;30.02;11.68;;;11.50;99.90;;;;;;5058308;28;20102;-65
2022/05/15 00:51:42;;;;;;;30.42;10.90;;;11.50;99.90;;;;;;5057815;28;20037;-65
2022/05/15 00:54:23;;;;;;;35.80;12.48;;;11.50;99.90;;;;;;5057509;28;20477;-64
2022/05/15 00:57:12;;;;;;;27.83;10.52;;;11.50;99.90;;;;;;5057657;28;20037;-65
2022/05/15 00:59:42;;;;;;;29.98;10.60;;;11.40;99.90;;;;;;5056433;28;20045;-64
2022/05/15 01:02:10;;;;;;;26.42;9.43;;;11.40;99.90;;;;;;5057470;28;20060;-66
2022/05/15 01:04:36;;;;;;;23.52;10.45;;;11.30;99.90;;;;;;5056760;28;20045;-64
2022/05/15 01:07:03;;;;;;;25.77;9.98;;;11.30;99.90;;;;;;5057081;28;20091;-65
2022/05/15 01:09:29;;;;;;;27.65;10.20;;;11.30;99.90;;;;;;5056530;28;20044;-64
2022/05/15 01:11:55;;;;;;;25.85;9.50;;;11.20;99.90;;;;;;5057165;28;20378;-65
2022/05/15 01:14:21;;;;;;;26.85;9.82;;;11.20;99.90;;;;;;5057214;28;20482;-65
2022/05/15 01:16:47;;;;;;;35.45;11.23;;;11.20;99.90;;;;;;5057221;28;20102;-64
2022/05/15 01:19:14;;;;;;;24.77;10.15;;;11.10;99.90;;;;;;5056819;28;20409;-64
2022/05/15 01:21:55;;;;;;;33.20;9.50;;;11.00;99.90;;;;;;5057446;28;20052;-64
2022/05/15 01:24:21;;;;;;;28.65;10.75;;;11.00;99.90;;;;;;5057268;28;20041;-64
2022/05/15 01:26:46;;;;;;;29.55;10.73;;;10.90;99.90;;;;;;5057252;28;20048;-65
2022/05/15 01:29:12;;;;;;;25.75;10.15;;;11.00;99.90;;;;;;5057231;28;20033;-65
2022/05/15 01:31:38;;;;;;;24.63;9.98;;;10.90;99.90;;;;;;5056260;28;20053;-65
2022/05/15 01:34:08;;;;;;;26.25;10.55;;;10.90;99.90;;;;;;5057214;28;20354;-65
2022/05/15 01:36:34;;;;;;;26.05;10.40;;;10.80;99.90;;;;;;5057069;28;20052;-64
2022/05/15 01:38:59;;;;;;;23.95;10.20;;;10.80;99.90;;;;;;5057006;28;20477;-64
2022/05/15 01:41:25;;;;;;;21.80;9.38;;;10.80;99.90;;;;;;5056643;28;20351;-64
2022/05/15 01:43:54;;;;;;;26.88;10.88;;;10.80;99.90;;;;;;5056304;28;20443;-65
2022/05/15 01:46:25;;;;;;;30.55;11.50;;;10.80;99.90;;;;;;5055864;28;20110;-65
2022/05/15 01:48:52;;;;;;;30.90;10.55;;;10.70;99.90;;;;;;5055996;28;20124;-65
2022/05/15 01:51:19;;;;;;;26.70;10.48;;;10.70;99.90;;;;;;5056678;28;20092;-65
2022/05/15 01:53:44;;;;;;;25.55;9.77;;;10.60;99.90;;;;;;5056652;28;20048;-64
2022/05/15 01:56:11;;;;;;;25.60;10.00;;;10.60;99.90;;;;;;5056730;28;20526;-65
2022/05/15 01:58:37;;;;;;;24.73;10.90;;;10.70;99.90;;;;;;5056285;28;20064;-64
2022/05/15 02:01:03;;;;;;;23.83;9.95;;;10.60;99.90;;;;;;5055689;28;20085;-64
2022/05/15 02:03:29;;;;;;;27.70;10.15;;;10.60;99.90;;;;;;5056591;28;20072;-64
2022/05/15 02:05:54;;;;;;;26.55;10.40;;;10.60;99.90;;;;;;5056387;28;20045;-64
2022/05/15 02:08:20;;;;;;;30.75;10.70;;;10.60;99.90;;;;;;5056516;28;20055;-64
2022/05/15 02:10:46;;;;;;;30.23;10.10;;;10.60;99.90;;;;;;5055862;28;20041;-64
2022/05/15 02:13:12;;;;;;;27.98;9.75;;;10.60;99.90;;;;;;5056423;28;20084;-64
2022/05/15 02:15:38;;;;;;;26.67;10.73;;;10.60;99.90;;;;;;5056166;28;20043;-64
2022/05/15 02:18:04;;;;;;;25.95;10.23;;;10.50;99.90;;;;;;5056643;28;20057;-64
2022/05/15 02:20:30;;;;;;;37.60;11.40;;;10.60;99.90;;;;;;5056181;28;20045;-64
2022/05/15 02:22:56;;;;;;;26.75;10.85;;;10.60;99.90;;;;;;5053168;28;20460;-64
2022/05/15 02:25:21;;;;;;;32.00;9.77;;;10.60;99.90;;;;;;5055433;28;20128;-65
2022/05/15 02:27:47;;;;;;;20.90;9.38;;;10.60;99.90;;;;;;5055744;28;20049;-64
2022/05/15 02:30:14;;;;;;;20.75;9.45;;;10.60;99.90;;;;;;5055943;28;20048;-64
2022/05/15 02:32:40;;;;;;;26.45;9.60;;;10.50;99.90;;;;;;5055910;28;20111;-64
2022/05/15 02:35:06;;;;;;;27.33;10.25;;;10.50;99.90;;;;;;5056040;28;20162;-65
2022/05/15 02:37:32;;;;;;;28.58;10.13;;;10.60;99.90;;;;;;5056019;28;20052;-64
2022/05/15 02:39:58;;;;;;;26.88;9.95;;;10.50;99.90;;;;;;5045943;28;20064;-64
2022/05/15 02:42:24;;;;;;;28.42;9.60;;;10.60;99.90;;;;;;5035166;28;20049;-64
2022/05/15 02:44:50;;;;;;;30.90;10.02;;;10.60;99.90;;;;;;5180892;22;20140;-64
2022/05/15 02:47:15;;;;;;;31.30;10.52;;;10.60;99.90;;;;;;5065382;28;20063;-64
2022/05/15 02:52:25;;;;;;;26.05;10.32;;;10.60;99.90;;;;;;5075552;28;20056;-65
2022/05/15 02:54:51;;;;;;;33.67;10.60;;;10.70;99.90;;;;;;5038077;28;20052;-64
2022/05/15 02:57:16;;;;;;;26.20;10.02;;;10.60;99.90;;;;;;5070759;28;20064;-64
2022/05/15 02:59:42;;;;;;;32.88;10.90;;;10.60;99.90;;;;;;5075168;28;20044;-65
2022/05/15 03:02:07;;;;;;;29.73;11.55;;;10.60;99.90;;;;;;5075028;28;20105;-64
2022/05/15 03:04:35;;;;;;;24.60;10.27;;;10.60;99.90;;;;;;5075489;28;20037;-65
2022/05/15 03:07:00;;;;;;;26.55;9.15;;;10.70;99.90;;;;;;5074121;28;20513;-64
2022/05/15 03:09:26;;;;;;;27.73;9.30;;;10.60;99.90;;;;;;5074723;28;20138;-64
2022/05/15 03:11:51;;;;;;;31.67;10.27;;;10.60;99.90;;;;;;5074979;28;20055;-64
2022/05/15 03:14:17;;;;;;;36.28;10.40;;;10.60;99.90;;;;;;5075369;28;20056;-64
2022/05/15 03:16:42;;;;;;;29.00;9.77;;;10.60;99.90;;;;;;5075213;28;20048;-64
2022/05/15 03:19:08;;;;;;;29.95;9.98;;;10.60;99.90;;;;;;5075119;28;20051;-64
2022/05/15 03:21:33;;;;;;;30.92;9.75;;;10.60;99.90;;;;;;5074732;28;20056;-64
2022/05/15 03:24:06;;;;;;;29.40;10.10;;;10.50;99.90;;;;;;5074811;28;20454;-64
2022/05/15 03:26:35;;;;;;;34.70;11.18;;;10.60;99.90;;;;;;5075081;28;20052;-64
2022/05/15 03:29:02;;;;;;;29.23;9.90;;;10.50;99.90;;;;;;5074867;28;20131;-65
2022/05/15 03:31:27;;;;;;;28.40;11.05;;;10.50;99.90;;;;;;5075098;28;20075;-64
2022/05/15 03:33:53;;;;;;;32.00;11.30;;;10.40;99.90;;;;;;5057624;28;20098;-64
2022/05/15 03:36:19;;;;;;;35.53;11.18;;;10.30;99.90;;;;;;5074048;28;20040;-65
2022/05/15 03:38:46;;;;;;;32.70;9.88;;;10.30;99.90;;;;;;5074593;28;20040;-64
2022/05/15 03:41:13;;;;;;;21.33;8.73;;;10.20;99.90;;;;;;5074729;28;20064;-65
2022/05/15 03:43:39;;;;;;;34.70;11.10;;;10.30;99.90;;;;;;5074833;28;20032;-64
2022/05/15 03:46:07;;;;;;;23.30;9.70;;;10.20;99.90;;;;;;5074857;28;20040;-64
2022/05/15 03:48:32;;;;;;;26.92;9.02;;;10.20;99.90;;;;;;5074615;28;20135;-64
2022/05/15 03:50:59;;;;;;;24.80;9.07;;;10.10;99.90;;;;;;5073601;28;20120;-65
2022/05/15 03:53:25;;;;;;;24.10;8.57;;;10.10;99.90;;;;;;5074561;28;20060;-64
2022/05/15 03:55:55;;;;;;;18.52;7.88;;;10.10;99.90;;;;;;5074667;28;20422;-64
2022/05/15 03:58:21;;;;;;;18.83;7.55;;;10.00;99.90;;;;;;5074493;28;20576;-64
2022/05/15 04:00:47;;;;;;;23.15;7.80;;;10.00;99.90;;;;;;5074915;28;20063;-64
2022/05/15 04:03:13;;;;;;;25.98;8.52;;;10.00;99.90;;;;;;5073740;28;20040;-64
2022/05/15 04:05:38;;;;;;;23.30;8.40;;;10.00;99.90;;;;;;5074276;28;20037;-65
2022/05/15 04:08:04;;;;;;;22.17;8.18;;;10.00;99.90;;;;;;5074600;28;20098;-64
2022/05/15 04:10:30;;;;;;;28.83;8.27;;;10.00;99.90;;;;;;5075274;28;20044;-64
2022/05/15 04:12:56;;;;;;;22.63;8.23;;;10.10;99.90;;;;;;5078707;28;20032;-64
2022/05/15 04:15:21;;;;;;;22.73;8.20;;;10.10;99.90;;;;;;5078826;28;20040;-64
2022/05/15 04:17:49;;;;;;;27.80;9.30;;;10.10;99.90;;;;;;5077678;28;20157;-65
2022/05/15 04:20:18;;;;;;;29.90;8.65;;;10.10;99.90;;;;;;5078408;28;20044;-65
2022/05/15 04:22:44;;;;;;;23.58;8.95;;;10.20;99.90;;;;;;5078353;28;20088;-64
2022/05/15 04:25:13;;;;;;;20.90;7.45;;;10.20;99.90;;;;;;5078334;28;20079;-64
2022/05/15 04:27:40;;;;;;;22.40;8.70;;;10.20;99.90;;;;;;5077466;28;20048;-64
2022/05/15 04:30:08;;;;;;;22.52;8.55;;;10.30;99.90;;;;;;5077885;28;20056;-64
2022/05/15 04:32:34;;;;;;;23.95;8.68;;;10.30;99.90;;;;;;5078199;28;20135;-64
2022/05/15 04:35:00;;;;;;;23.55;8.32;;;10.30;99.90;;;;;;5077931;28;20430;-64
2022/05/15 04:37:25;;;;;;;30.08;8.38;;;10.40;99.90;;;;;;5078607;28;20075;-64
2022/05/15 04:39:51;;;;;;;24.45;9.07;;;10.40;99.90;;;;;;5078126;28;20458;-64
2022/05/15 04:42:16;;;;;;;27.83;9.30;;;10.40;99.90;;;;;;5076768;28;20136;-65
2022/05/15 04:44:42;;;;;;;22.80;7.90;;;10.40;99.90;;;;;;5077441;28;20045;-64
2022/05/15 04:47:08;;;;;;;29.02;8.95;;;10.50;99.90;;;;;;5078133;28;20475;-64
2022/05/15 04:49:33;;;;;;;26.48;8.98;;;10.50;99.90;;;;;;5077616;28;20040;-65
2022/05/15 04:51:59;;;;;;;24.85;9.02;;;10.50;99.90;;;;;;5077996;28;20350;-64
2022/05/15 04:54:25;;;;;;;30.00;8.93;;;10.60;99.90;;;;;;5077622;28;20067;-64
2022/05/15 04:56:50;;;;;;;24.25;9.07;;;10.60;99.90;;;;;;5077573;28;20457;-64
2022/05/15 04:59:16;;;;;;;21.83;8.40;;;10.60;99.90;;;;;;5077582;28;20049;-65
2022/05/15 05:01:42;;;;;;;28.10;8.73;;;10.60;99.90;;;;;;5077003;28;20044;-64
2022/05/15 05:04:08;;;;;;;28.50;8.27;;;10.70;99.90;;;;;;5059833;28;20075;-64
2022/05/15 05:06:34;;;;;;;29.77;10.88;;;10.70;99.90;;;;;;5077517;28;20095;-64
2022/05/15 05:08:59;;;;;;;27.42;9.60;;;10.70;99.90;;;;;;5060284;28;20504;-65
2022/05/15 05:11:25;;;;;;;29.83;9.57;;;10.80;99.90;;;;;;5060547;28;20144;-65
2022/05/15 05:13:50;;;;;;;32.13;8.73;;;10.90;99.90;;;;;;5077710;28;20127;-64
2022/05/15 05:16:16;;;;;;;26.20;9.05;;;11.00;99.90;;;;;;5076817;28;20102;-65
2022/05/15 05:18:42;;;;;;;30.88;10.25;;;11.00;99.90;;;;;;5077319;28;20048;-65
2022/05/15 05:21:08;;;;;;;32.78;9.63;;;11.00;99.90;;;;;;5077055;28;20044;-64
2022/05/15 05:23:33;;;;;;;24.92;8.93;;;11.10;99.90;;;;;;5077317;28;20052;-64
2022/05/15 05:25:59;;;;;;;32.75;12.10;;;11.20;99.90;;;;;;5077285;28;20135;-64
2022/05/15 05:28:26;;;;;;;32.70;9.90;;;11.20;99.90;;;;;;5058999;28;20055;-64
2022/05/15 05:30:52;;;;;;;28.40;8.98;;;11.20;99.90;;;;;;5077289;28;20382;-64
2022/05/15 05:33:18;;;;;;;34.08;9.75;;;11.30;99.90;;;;;;5076964;28;20056;-65
2022/05/15 05:35:44;;;;;;;33.15;9.23;;;11.30;99.90;;;;;;5077091;28;20052;-64
2022/05/15 05:38:10;;;;;;;31.55;10.52;;;11.40;99.90;;;;;;5076985;28;20033;-65
2022/05/15 05:40:36;;;;;;;25.15;8.88;;;11.40;99.90;;;;;;5076886;28;20048;-64
2022/05/15 05:43:01;;;;;;;27.65;9.32;;;11.50;99.90;;;;;;5075892;28;20055;-64
2022/05/15 05:45:27;;;;;;;28.75;8.63;;;11.60;99.90;;;;;;5076872;28;20060;-64
2022/05/15 05:47:54;;;;;;;33.58;10.00;;;11.60;99.90;;;;;;5076861;28;20416;-65
2022/05/15 05:50:22;;;;;;;35.58;9.23;;;11.70;99.90;;;;;;5076712;28;20080;-65
2022/05/15 05:52:48;;;;;;;32.65;8.50;;;11.70;99.90;;;;;;5076808;28;20040;-64
2022/05/15 05:55:16;;;;;;;30.67;9.90;;;11.80;99.90;;;;;;5075640;28;20373;-65
2022/05/15 05:57:43;;;;;;;32.78;9.20;;;11.80;99.90;;;;;;5076873;28;20060;-64
2022/05/15 06:00:13;;;;;;;25.17;8.82;;;11.90;99.90;;;;;;5076619;28;20087;-65
2022/05/15 06:02:39;;;;;;;31.67;10.00;;;12.00;99.90;;;;;;5076372;28;20036;-65
2022/05/15 06:05:05;;;;;;;30.10;9.07;;;12.00;99.90;;;;;;5076616;28;20424;-64
2022/05/15 06:07:33;;;;;;;29.67;8.35;;;12.10;99.90;;;;;;5076383;28;20116;-65
2022/05/15 06:09:59;;;;;;;38.03;9.18;;;12.20;99.90;;;;;;5075457;28;20527;-65
2022/05/15 06:12:25;;;;;;;31.58;8.95;;;12.30;99.90;;;;;;5076329;28;20066;-65
2022/05/15 06:14:52;;;;;;;32.42;8.95;;;12.30;99.90;;;;;;5076345;28;20040;-64
2022/05/15 06:17:25;;;;;;;27.33;8.98;;;12.40;99.90;;;;;;5075983;28;20051;-65
2022/05/15 06:19:51;;;;;;;30.15;8.68;;;12.50;99.90;;;;;;5076123;28;20136;-64
2022/05/15 06:22:17;;;;;;;36.58;7.95;;;12.60;99.90;;;;;;5075302;28;20350;-65
2022/05/15 06:24:43;;;;;;;28.08;8.10;;;12.70;99.90;;;;;;5076279;28;20119;-65
2022/05/15 06:27:09;;;;;;;25.88;8.88;;;12.80;99.90;;;;;;5075869;28;20049;-65
2022/05/15 06:29:38;;;;;;;36.15;8.40;;;12.90;99.90;;;;;;5075367;28;20109;-65
2022/05/15 06:32:04;;;;;;;26.52;8.02;;;13.00;99.90;;;;;;5075804;28;20045;-65
2022/05/15 06:34:30;;;;;;;28.67;7.55;;;13.10;99.90;;;;;;5075071;28;20052;-65
2022/05/15 06:36:55;;;;;;;32.20;9.23;;;13.20;99.90;;;;;;5075905;28;20058;-65
2022/05/15 06:39:21;;;;;;;27.77;9.20;;;13.30;99.90;;;;;;5075759;28;20083;-65
2022/05/15 06:41:50;;;;;;;34.72;8.52;;;13.40;99.90;;;;;;5075975;28;20056;-65
2022/05/15 06:44:17;;;;;;;33.53;9.10;;;13.60;99.90;;;;;;5074787;28;20463;-65
2022/05/15 06:46:44;;;;;;;27.90;7.95;;;13.70;99.90;;;;;;5075157;28;20102;-65
2022/05/15 06:49:09;;;;;;;30.38;9.15;;;13.80;99.90;;;;;;5075531;28;20045;-66
2022/05/15 06:51:35;;;;;;;31.75;8.77;;;13.90;99.90;;;;;;5075432;28;20335;-65
2022/05/15 06:54:00;;;;;;;29.40;8.38;;;14.10;99.90;;;;;;5075686;28;20124;-64
2022/05/15 06:59:10;;;;;;;27.27;7.60;;;14.30;99.90;;;;;;5074804;28;20056;-65
2022/05/15 07:01:36;;;;;;;30.33;8.98;;;14.40;99.90;;;;;;5075243;28;20302;-65
2022/05/15 07:04:02;;;;;;;21.25;7.57;;;14.60;99.90;;;;;;5075384;28;20370;-64
2022/05/15 07:06:28;;;;;;;24.83;7.32;;;14.70;99.90;;;;;;5075244;28;20036;-65
2022/05/15 07:08:54;;;;;;;25.55;7.60;;;14.80;99.90;;;;;;5075577;28;20437;-66
2022/05/15 07:11:20;;;;;;;25.77;7.63;;;14.80;99.90;;;;;;5075481;28;20044;-65
2022/05/15 07:13:45;;;;;;;26.92;7.35;;;14.90;99.90;;;;;;5074469;28;20101;-65
2022/05/15 07:16:11;;;;;;;30.52;7.97;;;15.00;99.90;;;;;;5075177;28;20449;-65
2022/05/15 07:18:38;;;;;;;20.73;7.55;;;15.10;99.90;;;;;;5075059;28;20473;-65
2022/05/15 07:21:04;;;;;;;25.83;7.40;;;15.20;99.90;;;;;;5075113;28;20152;-66
2022/05/15 07:23:30;;;;;;;24.45;7.05;;;15.30;99.90;;;;;;5075185;28;20454;-65
2022/05/15 07:25:56;;;;;;;23.15;7.60;;;15.40;99.90;;;;;;5074774;28;20048;-66
2022/05/15 07:28:22;;;;;;;29.45;8.52;;;15.50;99.90;;;;;;5074022;28;20060;-66
2022/05/15 07:30:49;;;;;;;29.95;7.30;;;15.50;99.90;;;;;;5073983;28;20405;-65
2022/05/15 07:33:19;;;;;;;25.10;6.93;;;15.60;99.90;;;;;;5075014;28;20040;-66
2022/05/15 07:35:45;;;;;;;18.85;7.30;;;15.70;99.90;;;;;;5056983;28;20430;-65
2022/05/15 07:38:10;;;;;;;23.48;7.78;;;15.90;99.90;;;;;;5075020;28;20091;-66
2022/05/15 07:40:36;;;;;;;25.10;6.45;;;15.90;99.90;;;;;;5073785;28;20044;-67
2022/05/15 07:43:08;;;;;;;23.38;6.85;;;16.10;99.90;;;;;;5074860;28;20139;-65
2022/05/15 07:45:34;;;;;;;24.90;7.80;;;16.20;99.90;;;;;;5074936;28;20056;-66
2022/05/15 07:48:00;;;;;;;25.70;8.35;;;16.40;99.90;;;;;;5074754;28;20387;-66
2022/05/15 07:50:26;;;;;;;25.85;7.57;;;16.40;99.90;;;;;;5074615;28;20422;-66
2022/05/15 07:52:51;;;;;;;21.60;6.75;;;16.50;99.90;;;;;;5074682;28;20382;-66
2022/05/15 07:55:17;;;;;;;23.73;7.05;;;16.50;99.90;;;;;;5073611;28;20053;-66
2022/05/15 07:57:43;;;;;;;28.98;7.57;;;16.60;99.90;;;;;;5074017;28;20454;-65
2022/05/15 08:00:13;;;;;;;23.25;6.38;;;16.70;99.90;;;;;;5074639;28;20047;-66
2022/05/15 08:02:40;;;;;;;15.52;5.72;;;16.90;99.90;;;;;;5074641;28;20080;-66
2022/05/15 08:08:03;;;;;;;26.55;7.25;;;17.00;99.90;;;;;;5073797;28;20048;-66
2022/05/15 08:10:37;;;;;;;19.50;6.65;;;17.10;99.90;;;;;;5074567;28;20037;-66
2022/05/15 08:13:04;;;;;;;21.95;6.28;;;17.20;99.90;;;;;;5074568;28;20076;-66
2022/05/15 08:15:31;;;;;;;21.80;7.07;;;17.20;99.90;;;;;;5074547;28;20041;-66
2022/05/15 08:23:33;;;;;;;15.88;5.97;;;17.30;99.90;;;;;;5074531;28;20109;-66
2022/05/15 08:23:33;;;;;;;24.27;6.82;;;17.60;99.90;;;;;;5073324;28;20080;-66
2022/05/15 08:25:59;;;;;;;22.58;6.78;;;17.70;99.90;;;;;;5074524;28;20060;-66
2022/05/15 08:28:24;;;;;;;25.40;7.18;;;17.80;99.90;;;;;;5074324;28;20056;-66
2022/05/15 08:30:50;;;;;;;23.50;6.47;;;17.80;99.90;;;;;;5074401;28;20052;-66
2022/05/15 08:33:16;;;;;;;22.27;7.00;;;17.90;99.90;;;;;;5074344;28;20055;-66
2022/05/15 08:35:41;;;;;;;20.00;6.45;;;17.90;99.90;;;;;;5073778;28;20044;-66
2022/05/15 08:38:07;;;;;;;23.95;6.97;;;17.90;99.90;;;;;;5056999;28;20044;-67
2022/05/15 08:40:44;;;;;;;22.92;6.32;;;18.00;99.90;;;;;;5056753;28;20458;-66
2022/05/15 08:43:11;;;;;;;22.15;6.55;;;18.00;99.90;;;;;;5056502;28;20381;-66
2022/05/15 08:45:42;;;;;;;23.55;7.00;;;18.00;99.90;;;;;;5074502;28;20067;-66
2022/05/15 08:48:12;;;;;;;20.98;6.03;;;18.20;99.90;;;;;;5074257;28;20049;-66
2022/05/15 08:50:48;;;;;;;22.95;7.55;;;18.30;99.90;;;;;;5073316;28;20048;-66
2022/05/15 08:53:22;;;;;;;23.75;6.47;;;18.40;99.90;;;;;;5052523;28;20045;-67
2022/05/15 08:55:51;;;;;;;20.90;5.82;;;18.30;99.90;;;;;;5054130;28;20052;-66
2022/05/15 08:58:35;;;;;;;19.30;6.72;;;18.40;99.90;;;;;;5057354;28;20061;-66
2022/05/15 09:01:01;;;;;;;21.30;6.60;;;18.40;99.90;;;;;;5057786;28;20041;-66
2022/05/15 09:03:33;;;;;;;25.20;6.30;;;18.40;99.90;;;;;;5057774;28;20085;-67
2022/05/15 09:06:14;;;;;;;21.80;5.97;;;18.60;99.90;;;;;;5075245;28;20373;-67
2022/05/15 09:09:10;;;;;;;21.10;5.82;;;18.70;99.90;;;;;;5076331;28;20462;-66
2022/05/15 09:11:57;;;;;;;16.90;6.03;;;18.80;99.90;;;;;;5077478;28;20044;-66
2022/05/15 09:14:50;;;;;;;23.45;7.00;;;18.90;99.90;;;;;;5077653;28;20055;-66
2022/05/15 09:17:34;;;;;;;19.92;6.13;;;19.10;99.90;;;;;;5077458;28;20049;-66
2022/05/15 09:20:07;;;;;;;16.02;5.97;;;19.20;99.90;;;;;;5076918;28;20335;-67
2022/05/15 09:22:45;;;;;;;22.23;6.40;;;19.20;99.90;;;;;;5077699;28;20044;-66
2022/05/15 09:25:15;;;;;;;31.58;6.63;;;19.20;99.90;;;;;;5077221;28;20203;-67
2022/05/15 09:28:04;;;;;;;23.70;6.97;;;19.20;99.90;;;;;;5077140;28;20358;-67
2022/05/15 09:30:45;;;;;;;17.40;5.57;;;19.30;99.90;;;;;;5077169;28;20106;-66
2022/05/15 09:33:30;;;;;;;25.80;7.30;;;19.40;99.90;;;;;;5076893;28;20398;-67
2022/05/15 09:36:17;;;;;;;21.20;6.80;;;19.50;99.90;;;;;;5057077;28;20406;-66
2022/05/15 09:38:43;;;;;;;24.90;5.93;;;19.60;99.90;;;;;;5057116;28;20051;-66
2022/05/15 09:44:31;;;;;;;15.70;5.22;;;19.60;99.90;;;;;;5056405;28;20394;-67
2022/05/15 09:47:10;;;;;;;16.27;5.97;;;19.60;99.90;;;;;;5056935;28;20056;-66
2022/05/15 09:49:36;;;;;;;21.27;6.10;;;19.70;99.90;;;;;;5056503;28;20045;-67
2022/05/15 09:52:10;;;;;;;20.77;6.78;;;19.80;99.90;;;;;;5056500;28;20190;-67
2022/05/15 09:54:38;;;;;;;17.45;6.25;;;19.80;99.90;;;;;;5056657;28;20048;-66
2022/05/15 09:57:24;;;;;;;18.10;6.50;;;19.90;99.90;;;;;;5061202;28;20070;-66
2022/05/15 09:59:58;;;;;;;25.58;6.95;;;20.00;99.90;;;;;;5076617;28;20033;-66
2022/05/15 10:02:40;;;;;;;17.70;5.90;;;20.20;99.90;;;;;;5076236;28;20055;-66
2022/05/15 10:05:27;;;;;;;16.80;5.60;;;20.30;99.90;;;;;;5076358;28;20044;-67
2022/05/15 10:08:20;;;;;;;18.00;6.20;;;20.20;99.90;;;;;;5075387;28;20477;-66
2022/05/15 10:10:53;;;;;;;22.67;6.32;;;20.40;99.90;;;;;;5075959;28;20454;-67
2022/05/15 10:13:30;;;;;;;23.00;6.20;;;20.50;99.90;;;;;;5055292;28;20089;-67
2022/05/15 10:16:02;;;;;;;25.17;6.93;;;20.50;99.90;;;;;;5056235;28;20040;-66
2022/05/15 10:18:34;;;;;;;19.25;7.22;;;20.40;99.90;;;;;;5058250;28;20036;-67
2022/05/15 10:21:01;;;;;;;20.45;5.95;;;20.60;99.90;;;;;;5075994;28;20045;-67
2022/05/15 10:23:37;;;;;;;18.50;5.97;;;20.60;99.90;;;;;;5075909;28;20040;-67
2022/05/15 10:26:11;;;;;;;22.48;6.20;;;20.70;99.90;;;;;;5076083;28;20036;-66
2022/05/15 10:29:04;;;;;;;16.08;5.30;;;20.80;99.90;;;;;;5076141;28;20059;-66
2022/05/15 10:31:42;;;;;;;19.25;6.65;;;20.90;99.90;;;;;;5076368;28;20336;-67
2022/05/15 10:34:15;;;;;;;19.33;6.00;;;20.90;99.90;;;;;;5056024;28;20371;-66
2022/05/15 10:36:47;;;;;;;19.05;6.10;;;21.20;99.90;;;;;;5055911;28;20123;-67
2022/05/15 10:39:47;;;;;;;19.65;5.80;;;21.20;99.90;;;;;;5055994;28;20076;-67
2022/05/15 10:42:50;;;;;;;19.77;6.28;;;21.30;99.90;;;;;;5055610;28;20072;-67
2022/05/15 10:45:31;;;;;;;21.27;5.95;;;21.40;99.90;;;;;;5055743;28;20057;-67
2022/05/15 10:48:26;;;;;;;18.80;5.82;;;21.30;99.90;;;;;;5070294;28;20455;-66
2022/05/15 10:51:01;;;;;;;19.48;5.95;;;21.50;99.90;;;;;;5036082;28;20070;-67
2022/05/15 10:59:24;;;;;;;16.60;6.35;;;21.60;99.90;;;;;;5055444;28;20447;-67
2022/05/15 11:02:24;;;;;;;19.50;6.40;;;21.80;99.90;;;;;;5064235;28;20044;-67
2022/05/15 11:05:12;;;;;;;20.40;6.10;;;21.90;99.90;;;;;;5075620;28;20122;-66
2022/05/15 11:07:50;;;;;;;20.52;6.07;;;21.90;99.90;;;;;;5075699;28;20044;-67
2022/05/15 11:10:27;;;;;;;20.30;6.82;;;22.10;99.90;;;;;;5075245;28;20041;-67
2022/05/15 11:13:11;;;;;;;20.42;6.20;;;22.20;99.90;;;;;;5075332;28;20044;-66
2022/05/15 11:15:47;;;;;;;22.20;6.45;;;22.40;99.90;;;;;;5074197;28;20474;-67
2022/05/15 11:18:43;;;;;;;21.10;6.00;;;22.60;99.90;;;;;;5075207;28;20048;-67
2022/05/15 11:21:22;;;;;;;19.35;5.40;;;22.80;99.90;;;;;;5074657;28;20044;-67
2022/05/15 11:23:57;;;;;;;15.30;5.35;;;23.20;99.90;;;;;;5075002;28;20048;-67
2022/05/15 11:26:25;;;;;;;17.00;6.00;;;23.20;99.90;;;;;;5075077;28;20036;-67
2022/05/15 11:28:55;;;;;;;21.38;6.07;;;23.00;99.90;;;;;;5074504;28;20044;-67
2022/05/15 11:31:27;;;;;;;17.08;5.20;;;23.00;99.90;;;;;;5075184;28;20090;-67
2022/05/15 11:33:57;;;;;;;20.98;5.90;;;23.00;99.90;;;;;;5072440;28;20052;-67
2022/05/15 11:36:26;;;;;;;16.58;6.40;;;23.10;99.90;;;;;;5074801;28;20462;-67
2022/05/15 11:39:22;;;;;;;18.45;5.63;;;23.10;99.80;;;;;;5074893;28;20049;-67
2022/05/15 11:44:37;;;;;;;;;;;23.30;99.90;;;;;;5075187;28;20092;-68
2022/05/15 11:47:15;;;;;;;15.20;5.25;;;23.30;99.50;;;;;;5074578;28;20332;-67
2022/05/15 11:50:01;;;;;;;22.48;6.57;;;23.40;99.70;;;;;;5074816;28;20438;-67
2022/05/15 11:52:53;;;;;;;17.42;5.97;;;23.40;98.70;;;;;;5074425;28;20474;-67
2022/05/15 11:55:40;;;;;;;17.00;6.18;;;23.70;98.10;;;;;;5043844;28;20425;-67
2022/05/15 11:58:32;;;;;;;17.80;6.82;;;24.00;97.70;;;;;;5071557;28;20443;-67
2022/05/15 12:01:12;;;;;;;20.83;6.25;;;24.20;97.50;;;;;;5073833;28;20132;-68
2022/05/15 12:03:56;;;;;;;17.40;6.32;;;24.60;97.50;;;;;;5074892;28;20056;-67
2022/05/15 12:06:26;;;;;;;18.80;6.57;;;24.90;97.70;;;;;;5074843;28;20044;-67
2022/05/15 12:09:17;;;;;;;17.77;6.13;;;24.80;97.00;;;;;;5057478;28;20117;-68
2022/05/15 12:11:45;;;;;;;15.02;5.75;;;25.30;94.90;;;;;;5074448;28;20041;-68
2022/05/15 12:14:22;;;;;;;14.90;5.50;;;25.60;96.40;;;;;;5073298;28;20040;-67
2022/05/15 12:17:11;;;;;;;17.35;6.15;;;25.80;89.80;;;;;;5072948;28;20056;-67
2022/05/15 12:19:40;;;;;;;16.17;6.28;;;26.10;90.80;;;;;;5074562;28;20140;-68
2022/05/15 12:22:11;;;;;;;13.95;6.13;;;26.10;88.00;;;;;;5074296;28;20044;-68
2022/05/15 12:24:40;;;;;;;14.65;5.88;;;26.10;89.90;;;;;;5071448;28;20094;-68
2022/05/15 12:27:15;;;;;;;14.70;5.75;;;26.40;89.10;;;;;;5073964;28;20036;-66
2022/05/15 12:29:40;;;;;;;15.70;5.82;;;26.40;85.90;;;;;;5072205;28;20334;-65
2022/05/15 12:32:21;;;;;;;16.27;6.18;;;26.70;88.60;;;;;;5075449;28;20119;-65
2022/05/15 12:34:50;;;;;;;15.45;5.65;;;26.90;82.20;;;;;;5077968;28;20128;-66
2022/05/15 12:37:20;;;;;;;12.90;5.82;;;27.10;85.50;;;;;;5078109;28;20041;-66
2022/05/15 12:39:49;;;;;;;9.68;4.80;;;27.20;84.50;;;;;;5078133;28;20045;-67
2022/05/15 12:42:33;;;;;;;9.88;4.60;;;27.30;82.80;;;;;;5078253;28;20090;-66
2022/05/15 12:45:06;;;;;;;13.35;4.82;;;27.50;83.40;;;;;;5076745;28;20064;-67
2022/05/15 12:47:33;;;;;;;9.68;4.85;;;27.80;80.30;;;;;;5056243;28;20136;-66
2022/05/15 12:50:14;;;;;;;12.18;4.15;;;27.90;83.30;;;;;;5057935;28;20103;-67
2022/05/15 12:52:39;;;;;;;11.60;4.85;;;28.20;81.20;;;;;;5058155;28;20417;-67
2022/05/15 12:55:08;;;;;;;10.43;4.55;;;28.20;83.90;;;;;;5057803;28;20046;-67
2022/05/15 12:57:50;;;;;;;11.65;4.88;;;28.40;83.00;;;;;;5057982;28;20040;-67
2022/05/15 13:00:18;;;;;;;11.13;4.47;;;28.70;81.20;;;;;;5075432;28;20053;-66
2022/05/15 13:02:45;;;;;;;9.55;4.32;;;28.80;82.40;;;;;;5077308;28;20466;-67
2022/05/15 13:05:22;;;;;;;9.40;4.25;;;28.90;81.40;;;;;;5077646;28;20044;-67
2022/05/15 13:08:03;;;;;;;12.75;4.90;;;29.00;80.70;;;;;;5077598;28;20075;-67
2022/05/15 13:10:30;;;;;;;11.63;5.32;;;29.20;79.40;;;;;;5077275;28;20048;-67
2022/05/15 13:13:36;;;;;;;12.73;4.70;;;29.40;79.90;;;;;;5076904;28;20045;-67
2022/05/15 13:16:05;;;;;;;10.93;5.03;;;29.60;77.40;;;;;;5077296;28;20064;-67